createdAt,value
2022-07-29T00:03:33.024Z,23.56
2022-07-29T00:08:49.010Z,23.57
2022-07-29T00:14:04.635Z,23.57
2022-07-29T00:19:19.334Z,23.56
2022-07-29T00:24:34.576Z,23.56
2022-07-29T00:29:49.919Z,23.56
2022-07-29T00:35:05.854Z,23.57
2022-07-29T00:40:23.604Z,23.54
2022-07-29T00:45:39.901Z,23.54
2022-07-29T00:50:55.564Z,23.52
2022-07-29T00:56:10.560Z,23.52
2022-07-29T01:01:26.948Z,23.54
2022-07-29T01:06:42.601Z,23.53
2022-07-29T01:11:57.617Z,23.52
2022-07-29T01:17:12.582Z,23.55
2022-07-29T01:22:27.573Z,23.55
2022-07-29T01:27:42.619Z,23.54
2022-07-29T01:32:58.980Z,23.56
2022-07-29T01:38:14.561Z,23.55
2022-07-29T01:43:31.876Z,23.54
2022-07-29T01:48:47.809Z,23.53
2022-07-29T01:54:04.863Z,23.53
2022-07-29T01:59:20.901Z,23.54
2022-07-29T02:04:36.603Z,23.54
2022-07-29T02:09:51.946Z,23.56
2022-07-29T02:15:07.578Z,23.57
2022-07-29T02:20:25.636Z,23.59
2022-07-29T02:25:40.906Z,23.58
2022-07-29T02:30:56.720Z,23.58
2022-07-29T02:36:11.906Z,23.58
2022-07-29T02:41:27.572Z,23.57
2022-07-29T02:46:45.610Z,23.56
2022-07-29T02:52:00.898Z,23.55
2022-07-29T02:57:16.581Z,23.53
2022-07-29T03:02:32.040Z,23.53
2022-07-29T03:07:47.631Z,23.52
2022-07-29T03:13:03.582Z,23.51
2022-07-29T03:18:18.397Z,23.48
2022-07-29T03:23:35.419Z,23.47
2022-07-29T03:28:52.555Z,23.46
2022-07-29T03:34:07.884Z,23.44
2022-07-29T03:39:23.877Z,23.43
2022-07-29T03:44:39.589Z,23.41
2022-07-29T03:49:54.581Z,23.41
2022-07-29T03:55:09.895Z,23.40
2022-07-29T04:00:25.903Z,23.40
2022-07-29T04:05:41.603Z,23.39
2022-07-29T04:10:56.901Z,23.38
2022-07-29T04:16:12.693Z,23.38
2022-07-29T04:21:27.908Z,23.40
2022-07-29T04:26:43.591Z,23.41
2022-07-29T04:31:58.893Z,23.42
2022-07-29T04:37:14.882Z,23.41
2022-07-29T04:42:30.615Z,23.41
2022-07-29T04:47:46.570Z,23.39
2022-07-29T04:53:01.599Z,23.36
2022-07-29T04:58:16.585Z,23.36
2022-07-29T05:03:31.588Z,23.38
2022-07-29T05:08:46.913Z,23.37
2022-07-29T05:14:02.878Z,23.38
2022-07-29T05:19:18.601Z,23.38
2022-07-29T05:24:33.588Z,23.37
2022-07-29T05:29:48.929Z,23.36
2022-07-29T05:35:04.935Z,23.36
2022-07-29T05:40:20.956Z,23.37
2022-07-29T05:45:49.205Z,23.36
2022-07-29T05:51:05.608Z,23.36
2022-07-29T05:56:20.606Z,23.37
2022-07-29T06:01:35.634Z,23.39
2022-07-29T06:06:50.609Z,23.39
2022-07-29T06:12:08.774Z,23.39
2022-07-29T06:17:24.613Z,23.40
2022-07-29T06:22:39.910Z,23.40
2022-07-29T06:27:55.593Z,23.40
2022-07-29T06:33:10.615Z,23.39
2022-07-29T06:38:34.154Z,23.39
2022-07-29T06:43:51.741Z,23.37
2022-07-29T06:49:07.952Z,23.36
2022-07-29T06:54:23.602Z,23.36
2022-07-29T06:59:38.912Z,23.36
2022-07-29T07:04:54.652Z,23.33
2022-07-29T07:10:09.631Z,23.31
2022-07-29T07:15:38.847Z,23.31
2022-07-29T07:20:55.639Z,23.33
2022-07-29T07:26:10.626Z,23.35
2022-07-29T07:31:25.637Z,23.35
2022-07-29T07:36:40.596Z,23.33
2022-07-29T07:41:55.576Z,23.33
2022-07-29T07:47:12.491Z,23.33
2022-07-29T07:52:27.845Z,23.35
2022-07-29T07:57:43.591Z,23.35
2022-07-29T08:02:58.687Z,23.36
2022-07-29T08:08:13.616Z,23.35
2022-07-29T08:13:28.615Z,23.36
2022-07-29T08:18:43.590Z,23.35
2022-07-29T08:24:02.915Z,23.36
2022-07-29T08:29:22.887Z,23.38
2022-07-29T08:34:38.951Z,23.38
2022-07-29T08:39:54.617Z,23.40
2022-07-29T08:45:09.595Z,23.41
2022-07-29T08:50:24.937Z,23.41
2022-07-29T08:55:40.674Z,23.41
2022-07-29T09:00:56.718Z,23.44
2022-07-29T09:06:13.662Z,23.45
2022-07-29T09:11:28.965Z,23.46
2022-07-29T09:16:53.266Z,23.47
2022-07-29T09:22:08.689Z,23.48
2022-07-29T09:27:23.913Z,23.49
2022-07-29T09:32:39.576Z,23.49
2022-07-29T09:37:58.631Z,23.49
2022-07-29T09:43:13.640Z,23.51
2022-07-29T09:48:28.643Z,23.51
2022-07-29T09:53:43.943Z,23.53
2022-07-29T09:58:59.629Z,23.54
2022-07-29T10:04:14.628Z,23.55
2022-07-29T10:09:29.606Z,23.56
2022-07-29T10:14:44.620Z,23.59
2022-07-29T10:19:59.590Z,23.59
2022-07-29T10:25:14.614Z,23.61
2022-07-29T10:30:29.633Z,23.61
2022-07-29T10:35:44.938Z,23.61
2022-07-29T10:41:00.639Z,23.63
2022-07-29T10:46:15.959Z,23.63
2022-07-29T10:51:31.969Z,23.64
2022-07-29T10:56:48.931Z,23.64
2022-07-29T11:02:35.354Z,23.65
2022-07-29T11:07:45.813Z,23.66
2022-07-29T11:13:01.868Z,23.68
2022-07-29T11:18:18.599Z,23.71
2022-07-29T11:23:38.605Z,23.73
2022-07-29T11:28:57.932Z,23.75
2022-07-29T11:34:13.609Z,23.77
2022-07-29T11:39:36.245Z,23.78
2022-07-29T11:44:52.731Z,23.80
2022-07-29T11:50:10.260Z,23.82
2022-07-29T11:55:32.609Z,23.85
2022-07-29T12:00:49.993Z,23.86
2022-07-29T12:11:40.864Z,23.90
2022-07-29T12:16:57.022Z,23.91
2022-07-29T12:22:14.655Z,23.93
2022-07-29T12:27:29.732Z,23.95
2022-07-29T12:32:46.666Z,23.97
2022-07-29T12:38:01.954Z,24.00
2022-07-29T12:43:17.982Z,24.01
2022-07-29T12:48:33.924Z,24.02
2022-07-29T12:53:49.608Z,24.04
2022-07-29T12:59:04.658Z,24.04
2022-07-29T13:04:19.982Z,24.06
2022-07-29T13:09:36.037Z,24.07
2022-07-29T13:14:51.901Z,24.08
2022-07-29T13:20:08.828Z,24.09
2022-07-29T13:25:24.927Z,24.11
2022-07-29T13:30:44.534Z,24.12
2022-07-29T13:35:59.939Z,24.12
2022-07-29T13:41:15.943Z,24.14
2022-07-29T13:46:33.923Z,24.15
2022-07-29T13:51:49.664Z,24.15
2022-07-29T13:57:04.966Z,24.15
2022-07-29T14:02:21.640Z,24.17
2022-07-29T14:07:41.957Z,24.18
2022-07-29T14:12:57.960Z,24.18
2022-07-29T14:18:14.092Z,24.20
2022-07-29T14:23:29.959Z,24.22
2022-07-29T14:28:45.423Z,24.25
2022-07-29T14:34:02.851Z,24.26
2022-07-29T14:39:18.943Z,24.28
2022-07-29T14:44:34.658Z,24.29
2022-07-29T14:49:49.648Z,24.29
2022-07-29T14:55:04.653Z,24.34
2022-07-29T15:00:19.696Z,24.35
2022-07-29T15:05:34.646Z,24.37
2022-07-29T15:10:49.986Z,24.38
2022-07-29T15:16:05.656Z,24.40
2022-07-29T15:21:20.982Z,24.40
2022-07-29T15:26:36.994Z,24.42
2022-07-29T15:31:53.031Z,24.42
2022-07-29T15:37:08.966Z,24.44
2022-07-29T15:42:25.019Z,24.44
2022-07-29T15:47:40.650Z,24.43
2022-07-29T15:52:55.640Z,24.42
2022-07-29T15:58:10.949Z,24.40
2022-07-29T16:03:26.672Z,24.40
2022-07-29T16:08:41.983Z,24.39
2022-07-29T16:13:57.674Z,24.39
2022-07-29T16:19:12.654Z,24.39
2022-07-29T16:24:27.661Z,24.37
2022-07-29T16:29:42.668Z,24.38
2022-07-29T16:34:57.674Z,24.37
2022-07-29T16:40:13.027Z,24.38
2022-07-29T16:45:28.756Z,24.37
2022-07-29T16:50:56.661Z,24.37
2022-07-29T16:56:12.778Z,24.37
2022-07-29T17:01:28.721Z,24.37
2022-07-29T17:06:43.679Z,24.38
2022-07-29T17:11:58.707Z,24.36
2022-07-29T17:17:16.715Z,24.39
2022-07-29T17:22:36.974Z,24.39
2022-07-29T17:27:54.469Z,24.39
2022-07-29T17:33:12.961Z,24.40
2022-07-29T17:38:28.682Z,24.40
2022-07-29T17:43:44.006Z,24.40
2022-07-29T17:48:59.676Z,24.41
2022-07-29T17:54:14.948Z,24.41
2022-07-29T17:59:30.697Z,24.42
2022-07-29T18:04:45.632Z,24.43
2022-07-29T18:10:05.636Z,24.44
2022-07-29T18:15:20.966Z,24.44
2022-07-29T18:20:36.649Z,24.45
2022-07-29T18:25:51.964Z,24.44
2022-07-29T18:31:07.730Z,24.45
2022-07-29T18:36:22.977Z,24.46
2022-07-29T18:41:50.037Z,24.46
2022-07-29T18:47:06.790Z,24.47
2022-07-29T18:52:26.973Z,24.47
2022-07-29T18:57:55.231Z,24.47
2022-07-29T19:03:12.723Z,24.48
2022-07-29T19:08:27.695Z,24.48
2022-07-29T19:13:42.618Z,24.48
2022-07-29T19:18:57.402Z,24.48
2022-07-29T19:24:15.598Z,24.48
2022-07-29T19:29:30.670Z,24.48
2022-07-29T19:34:48.899Z,24.48
2022-07-29T19:40:43.011Z,24.45
2022-07-29T19:45:58.738Z,24.44
2022-07-29T19:51:13.659Z,24.44
2022-07-29T19:56:28.669Z,24.45
2022-07-29T20:01:43.749Z,24.45
2022-07-29T20:06:59.286Z,24.43
2022-07-29T20:12:14.716Z,24.43
2022-07-29T20:17:29.721Z,24.41
2022-07-29T20:22:44.961Z,24.39
2022-07-29T20:28:00.914Z,24.37
2022-07-29T20:33:16.731Z,24.38
2022-07-29T20:38:31.969Z,24.38
2022-07-29T20:43:47.660Z,24.36
2022-07-29T20:49:02.735Z,24.35
2022-07-29T20:54:17.669Z,24.33
2022-07-29T20:59:32.986Z,24.33
2022-07-29T21:04:48.684Z,24.32
2022-07-29T21:10:03.736Z,24.31
2022-07-29T21:15:18.728Z,24.30
2022-07-29T21:20:34.982Z,24.29
2022-07-29T21:25:50.983Z,24.30
2022-07-29T21:31:06.724Z,24.29
2022-07-29T21:36:47.294Z,24.29
2022-07-29T21:41:56.991Z,24.28
2022-07-29T21:47:12.680Z,24.27
2022-07-29T21:52:27.667Z,24.26
2022-07-29T21:57:43.671Z,24.25
2022-07-29T22:02:58.983Z,24.24
2022-07-29T22:08:14.954Z,24.23
2022-07-29T22:13:30.950Z,24.23
2022-07-29T22:18:47.016Z,24.23
2022-07-29T22:24:02.979Z,24.22
2022-07-29T22:29:19.043Z,24.21
2022-07-29T22:34:37.256Z,24.20
2022-07-29T22:39:54.017Z,24.19
2022-07-29T22:45:09.684Z,24.20
2022-07-29T22:50:25.028Z,24.19
2022-07-29T22:55:41.067Z,24.19
2022-07-29T23:00:56.744Z,24.20
2022-07-29T23:06:11.718Z,24.20
2022-07-29T23:11:26.663Z,24.20
2022-07-29T23:16:41.727Z,24.20
2022-07-29T23:21:56.994Z,24.21
2022-07-29T23:27:12.998Z,24.20
2022-07-29T23:32:28.900Z,24.21
2022-07-29T23:37:44.690Z,24.20
2022-07-29T23:42:59.684Z,24.20
2022-07-29T23:48:15.048Z,24.20
2022-07-29T23:53:31.015Z,24.19
2022-07-29T23:58:47.017Z,24.19
